Time;durP1;ratioP1;P1;durP2;ratioP2;P2;SDS_P1;SDS_P2;PMS_P1;PMS_P2;Temp;Humidity;BMP_temperature;BMP_pressure;BME280_temperature;BME280_humidity;BME280_pressure;Samples;Min_cycle;Max_cycle;Signal;HPM_P1;HPM_P2
2021/05/03 00:01:10;;;;;;;1.53;1.43;;;12.10;70.50;;;;;;6273898;28;20776;-68
2021/05/03 00:04:12;;;;;;;2.00;1.90;;;12.10;71.40;;;;;;6273932;28;20477;-68
2021/05/03 00:07:14;;;;;;;2.20;2.10;;;12.10;71.80;;;;;;6276350;28;20792;-67
2021/05/03 00:10:19;;;;;;;2.07;1.87;;;12.10;72.00;;;;;;6279331;28;20785;-68
2021/05/03 00:13:22;;;;;;;2.03;1.93;;;12.10;72.20;;;;;;6278946;28;20477;-68
2021/05/03 00:16:25;;;;;;;2.30;2.10;;;12.10;72.10;;;;;;6278995;28;20476;-68
2021/05/03 00:19:27;;;;;;;1.90;1.80;;;12.00;72.20;;;;;;6278548;28;20513;-69
2021/05/03 00:22:29;;;;;;;5.60;2.20;;;12.00;72.30;;;;;;6278565;28;20791;-69
2021/05/03 00:25:33;;;;;;;2.90;2.70;;;12.00;72.60;;;;;;6278560;28;20484;-69
2021/05/03 00:28:35;;;;;;;2.20;2.10;;;11.90;72.20;;;;;;6278927;28;20470;-69
2021/05/03 00:31:37;;;;;;;2.47;2.27;;;11.80;72.80;;;;;;6278385;28;20481;-69
2021/05/03 00:34:39;;;;;;;2.40;2.20;;;11.80;74.30;;;;;;6278478;28;20478;-69
2021/05/03 00:37:42;;;;;;;2.47;2.27;;;11.80;73.70;;;;;;6278134;28;21008;-68
2021/05/03 00:40:45;;;;;;;2.87;2.57;;;11.80;73.20;;;;;;6278250;28;20839;-68
2021/05/03 00:43:47;;;;;;;2.33;2.23;;;11.80;73.50;;;;;;6277563;28;20814;-69
2021/05/03 00:46:49;;;;;;;2.60;2.50;;;11.80;73.70;;;;;;6277855;28;20477;-68
2021/05/03 00:49:51;;;;;;;2.90;2.70;;;11.80;74.40;;;;;;6278069;28;20484;-68
2021/05/03 00:52:53;;;;;;;2.80;2.60;;;11.70;75.00;;;;;;6277766;28;20961;-67
2021/05/03 00:55:56;;;;;;;3.10;2.90;;;11.70;74.70;;;;;;6277940;28;20466;-68
2021/05/03 00:58:59;;;;;;;3.40;2.47;;;11.70;74.60;;;;;;6277572;28;20480;-68
2021/05/03 01:02:02;;;;;;;3.20;3.00;;;11.70;74.60;;;;;;6277669;28;20473;-68
2021/05/03 01:05:04;;;;;;;3.10;2.80;;;11.70;74.60;;;;;;6277380;28;20853;-67
2021/05/03 01:08:07;;;;;;;3.47;3.17;;;11.70;74.50;;;;;;6277936;28;20466;-68
2021/05/03 01:11:10;;;;;;;3.10;2.90;;;11.70;74.00;;;;;;6277575;28;21008;-68
2021/05/03 01:14:12;;;;;;;3.70;3.40;;;11.60;74.30;;;;;;6277036;28;20481;-67
2021/05/03 01:17:17;;;;;;;3.10;2.90;;;11.50;74.10;;;;;;6276897;28;20488;-68
2021/05/03 01:20:20;;;;;;;3.80;3.50;;;11.40;74.80;;;;;;6277564;28;20553;-68
2021/05/03 01:23:23;;;;;;;3.57;3.33;;;11.40;75.90;;;;;;6277061;28;20973;-64
2021/05/03 01:26:28;;;;;;;3.27;3.00;;;11.30;75.80;;;;;;6277165;28;20507;-64
2021/05/03 01:29:30;;;;;;;4.00;3.60;;;11.30;76.40;;;;;;6276941;28;20973;-64
2021/05/03 01:32:32;;;;;;;3.10;2.90;;;11.20;77.30;;;;;;6276762;28;20473;-66
2021/05/03 01:35:36;;;;;;;3.20;3.00;;;11.10;78.00;;;;;;6276931;28;20802;-63
2021/05/03 01:38:39;;;;;;;3.20;3.00;;;11.10;78.60;;;;;;6276552;28;20478;-63
2021/05/03 01:41:42;;;;;;;3.63;3.40;;;11.10;79.10;;;;;;6276887;28;20470;-63
2021/05/03 01:44:45;;;;;;;2.70;2.50;;;11.10;79.20;;;;;;6276026;28;20486;-63
2021/05/03 01:47:48;;;;;;;3.70;3.40;;;11.10;79.10;;;;;;6276643;28;20482;-63
2021/05/03 01:50:50;;;;;;;2.73;2.53;;;11.20;79.10;;;;;;6276873;28;20470;-64
2021/05/03 01:53:54;;;;;;;3.90;3.50;;;11.30;79.10;;;;;;6276166;28;20466;-63
2021/05/03 01:56:56;;;;;;;3.37;3.07;;;11.30;79.20;;;;;;6276300;28;20466;-63
2021/05/03 01:59:59;;;;;;;2.97;2.70;;;11.20;79.60;;;;;;6276614;28;21001;-65
2021/05/03 02:03:01;;;;;;;2.90;2.70;;;11.10;79.50;;;;;;6276304;28;20623;-65
2021/05/03 02:06:04;;;;;;;2.87;2.67;;;11.20;79.70;;;;;;6276111;28;20485;-66
2021/05/03 02:09:09;;;;;;;2.97;2.77;;;11.20;79.50;;;;;;6276347;28;20470;-65
2021/05/03 02:12:12;;;;;;;3.47;3.20;;;11.20;79.80;;;;;;6276023;28;20978;-66
2021/05/03 02:15:14;;;;;;;2.40;2.20;;;11.20;79.90;;;;;;6276031;28;20852;-65
2021/05/03 02:18:17;;;;;;;2.40;2.30;;;11.20;80.00;;;;;;6275773;28;20482;-65
2021/05/03 02:21:19;;;;;;;2.90;2.73;;;11.20;80.20;;;;;;6276142;28;20814;-65
2021/05/03 02:24:23;;;;;;;3.17;2.87;;;11.20;80.40;;;;;;6275157;28;20481;-65
2021/05/03 02:27:25;;;;;;;2.83;2.63;;;11.20;80.60;;;;;;6275437;28;20493;-67
2021/05/03 02:30:27;;;;;;;2.80;2.60;;;11.20;80.60;;;;;;6274404;28;20472;-66
2021/05/03 02:33:30;;;;;;;2.77;2.57;;;11.20;80.60;;;;;;6275734;28;20803;-65
2021/05/03 02:36:32;;;;;;;2.50;2.40;;;11.30;80.70;;;;;;6275618;28;20470;-65
2021/05/03 02:39:41;;;;;;;2.90;2.70;;;11.20;80.50;;;;;;6275519;28;20474;-66
2021/05/03 02:42:46;;;;;;;2.30;2.20;;;11.20;80.20;;;;;;6275636;28;20481;-65
2021/05/03 02:45:48;;;;;;;2.80;2.60;;;11.10;80.10;;;;;;6274571;28;20473;-66
2021/05/03 02:48:50;;;;;;;2.53;2.40;;;11.00;80.20;;;;;;6275138;28;20513;-66
2021/05/03 02:51:52;;;;;;;2.40;2.20;;;11.00;80.60;;;;;;6275050;28;20458;-66
2021/05/03 02:54:56;;;;;;;2.90;2.70;;;11.00;80.90;;;;;;6274835;28;20979;-68
2021/05/03 02:57:58;;;;;;;2.87;2.67;;;11.00;80.80;;;;;;6274714;28;20438;-66
2021/05/03 03:01:00;;;;;;;3.47;2.57;;;11.10;80.70;;;;;;6275150;28;20446;-65
2021/05/03 03:04:03;;;;;;;2.67;2.50;;;11.10;80.80;;;;;;6274330;28;21107;-66
2021/05/03 03:07:06;;;;;;;2.77;2.57;;;11.20;80.90;;;;;;6274751;28;20482;-66
2021/05/03 03:10:11;;;;;;;3.23;2.93;;;11.20;80.00;;;;;;6274730;28;20918;-66
2021/05/03 03:13:13;;;;;;;2.90;2.60;;;11.20;79.70;;;;;;6274803;28;20458;-66
2021/05/03 03:16:21;;;;;;;3.33;3.07;;;11.20;79.00;;;;;;6274521;28;20462;-66
2021/05/03 03:19:23;;;;;;;3.00;2.80;;;11.20;78.90;;;;;;6274603;28;20552;-66
2021/05/03 03:22:26;;;;;;;2.73;2.50;;;11.20;78.90;;;;;;6275067;28;20480;-66
2021/05/03 03:25:31;;;;;;;2.73;2.53;;;11.30;79.70;;;;;;6274308;28;20485;-66
2021/05/03 03:28:33;;;;;;;2.67;2.47;;;11.40;80.90;;;;;;6269617;28;20957;-66
2021/05/03 03:31:36;;;;;;;2.70;2.50;;;11.40;81.20;;;;;;6274073;28;20470;-66
2021/05/03 03:34:38;;;;;;;2.43;2.23;;;11.40;82.00;;;;;;6274603;28;20470;-66
2021/05/03 03:37:49;;;;;;;2.33;2.23;;;11.50;82.80;;;;;;6273837;28;20466;-66
2021/05/03 03:40:52;;;;;;;2.73;2.63;;;11.50;83.00;;;;;;6274330;28;20480;-66
2021/05/03 03:43:55;;;;;;;3.00;2.80;;;11.50;83.20;;;;;;6274246;28;20616;-66
2021/05/03 03:46:57;;;;;;;3.10;2.90;;;11.60;83.10;;;;;;6274032;28;20474;-66
2021/05/03 03:50:00;;;;;;;2.93;2.73;;;11.60;83.20;;;;;;6274484;28;20562;-66
2021/05/03 03:53:02;;;;;;;2.83;2.63;;;11.60;83.40;;;;;;6274265;28;20482;-66
2021/05/03 03:56:06;;;;;;;3.83;3.23;;;11.60;83.50;;;;;;6274425;28;20481;-65
2021/05/03 03:59:11;;;;;;;3.07;2.83;;;11.60;83.50;;;;;;6274014;28;20469;-66
2021/05/03 04:02:13;;;;;;;2.73;2.53;;;11.60;83.60;;;;;;6274407;28;20466;-66
2021/05/03 04:05:26;;;;;;;3.13;2.93;;;11.70;83.50;;;;;;6273887;28;20473;-66
2021/05/03 04:08:33;;;;;;;2.93;2.70;;;11.70;83.20;;;;;;6273740;28;20537;-66
2021/05/03 04:11:57;;;;;;;2.90;2.70;;;11.70;83.10;;;;;;6274113;28;20474;-65
2021/05/03 04:21:49;;;;;;;3.17;2.97;;;11.90;82.90;;;;;;6273494;28;20467;-65
2021/05/03 04:24:53;;;;;;;2.60;2.40;;;11.90;82.40;;;;;;6274172;28;20961;-65
2021/05/03 04:27:57;;;;;;;2.90;2.70;;;11.90;82.50;;;;;;6273419;28;20482;-65
2021/05/03 04:30:59;;;;;;;3.93;3.30;;;11.90;82.30;;;;;;6264142;28;20906;-65
2021/05/03 04:34:01;;;;;;;3.33;3.10;;;11.90;82.60;;;;;;6273068;28;20481;-66
2021/05/03 04:37:03;;;;;;;3.13;2.93;;;12.00;82.50;;;;;;6273850;28;20438;-66
2021/05/03 04:40:09;;;;;;;2.93;2.73;;;12.10;82.30;;;;;;6272853;28;20442;-65
2021/05/03 04:43:12;;;;;;;2.97;2.77;;;12.20;82.20;;;;;;6272029;28;20492;-65
2021/05/03 04:46:16;;;;;;;3.30;3.10;;;12.30;81.90;;;;;;6271573;28;20485;-66
2021/05/03 04:49:18;;;;;;;3.13;2.93;;;12.30;81.60;;;;;;6271889;28;20508;-66
2021/05/03 04:52:21;;;;;;;6.00;2.80;;;12.30;81.50;;;;;;6272846;28;20473;-66
2021/05/03 04:55:23;;;;;;;3.40;3.10;;;12.20;81.50;;;;;;6276247;28;20474;-66
2021/05/03 04:58:26;;;;;;;4.20;3.90;;;12.20;82.00;;;;;;6278239;28;20465;-67
2021/05/03 05:01:29;;;;;;;3.10;2.90;;;12.30;82.80;;;;;;6277739;28;20804;-66
2021/05/03 05:04:31;;;;;;;4.30;3.93;;;12.30;82.60;;;;;;6277935;28;20491;-66
2021/05/03 05:07:33;;;;;;;5.63;3.50;;;12.20;82.20;;;;;;6277507;28;20474;-66
2021/05/03 05:10:37;;;;;;;5.30;4.47;;;12.20;82.90;;;;;;6277850;28;20480;-66
2021/05/03 05:13:40;;;;;;;4.43;4.03;;;12.30;83.20;;;;;;6277248;28;20489;-66
2021/05/03 05:16:42;;;;;;;4.60;4.30;;;12.30;83.30;;;;;;6278114;28;20466;-66
2021/05/03 05:19:44;;;;;;;5.10;4.60;;;12.40;82.40;;;;;;6276919;28;20478;-66
2021/05/03 05:22:47;;;;;;;4.37;4.00;;;12.40;83.00;;;;;;6277297;28;20817;-66
2021/05/03 05:25:49;;;;;;;4.17;3.87;;;12.60;83.10;;;;;;6277490;28;20544;-70
2021/05/03 05:28:53;;;;;;;5.10;4.70;;;12.60;81.50;;;;;;6277016;28;20474;-69
2021/05/03 05:31:55;;;;;;;5.30;4.80;;;12.10;78.60;;;;;;6276799;28;20988;-70
2021/05/03 05:34:57;;;;;;;5.67;5.27;;;11.90;78.80;;;;;;6267194;28;20567;-70
2021/05/03 05:37:59;;;;;;;5.97;5.37;;;11.80;82.10;;;;;;6277350;28;20969;-68
2021/05/03 05:41:02;;;;;;;4.90;4.50;;;11.60;83.00;;;;;;6276880;28;20469;-68
2021/05/03 05:44:06;;;;;;;5.30;4.80;;;11.80;84.60;;;;;;6276903;28;20804;-68
2021/05/03 05:47:08;;;;;;;4.93;4.43;;;11.90;83.50;;;;;;6276496;28;20482;-68
2021/05/03 05:50:11;;;;;;;5.30;4.70;;;12.20;84.50;;;;;;6276687;28;20466;-69
2021/05/03 05:53:14;;;;;;;6.97;4.40;;;12.30;84.90;;;;;;6276483;28;20466;-70
2021/05/03 05:56:16;;;;;;;5.47;4.80;;;12.50;85.50;;;;;;6276619;28;20473;-70
2021/05/03 05:59:19;;;;;;;5.40;4.90;;;12.80;84.00;;;;;;6276768;28;20477;-68
2021/05/03 06:02:21;;;;;;;6.83;5.50;;;12.90;82.50;;;;;;6276200;28;20561;-68
2021/05/03 06:05:24;;;;;;;7.63;4.90;;;13.20;81.60;;;;;;6276318;28;20802;-68
2021/05/03 06:08:26;;;;;;;5.80;5.30;;;13.20;80.10;;;;;;6276282;28;20534;-68
2021/05/03 06:11:29;;;;;;;6.90;6.07;;;13.10;80.40;;;;;;6276390;28;20477;-69
2021/05/03 06:14:32;;;;;;;5.97;5.47;;;13.20;80.90;;;;;;6275910;28;20536;-66
2021/05/03 06:17:34;;;;;;;5.07;4.67;;;13.50;80.80;;;;;;6276181;28;20473;-66
2021/05/03 06:20:38;;;;;;;5.40;4.90;;;13.60;79.20;;;;;;6276058;28;20469;-66
2021/05/03 06:23:40;;;;;;;5.37;4.83;;;13.90;78.60;;;;;;6276196;28;20478;-66
2021/05/03 06:26:42;;;;;;;6.67;5.97;;;14.10;77.50;;;;;;6275283;28;20485;-66
2021/05/03 06:29:45;;;;;;;5.60;5.20;;;14.30;75.90;;;;;;6275749;28;20484;-70
2021/05/03 06:32:47;;;;;;;5.33;4.77;;;14.30;74.70;;;;;;6275433;28;20486;-70
2021/05/03 06:35:50;;;;;;;5.53;5.13;;;14.40;73.30;;;;;;6271275;28;20544;-69
2021/05/03 06:38:53;;;;;;;6.37;5.87;;;14.50;73.90;;;;;;6275527;28;20520;-69
2021/05/03 06:41:55;;;;;;;5.63;4.87;;;14.80;71.70;;;;;;6275332;28;20469;-67
2021/05/03 06:45:01;;;;;;;6.93;4.97;;;15.40;69.10;;;;;;6275331;28;20528;-67
2021/05/03 06:48:04;;;;;;;5.00;3.97;;;15.90;67.90;;;;;;6274420;28;20573;-67
2021/05/03 06:51:07;;;;;;;4.87;4.57;;;16.60;64.10;;;;;;6274726;28;20892;-66
2021/05/03 06:54:09;;;;;;;4.93;4.53;;;17.20;62.80;;;;;;6274185;28;20486;-66
2021/05/03 06:57:12;;;;;;;5.63;5.20;;;18.10;62.20;;;;;;6274588;28;20458;-70
2021/05/03 07:00:18;;;;;;;5.50;4.97;;;19.20;58.10;;;;;;6274413;28;20470;-70
2021/05/03 07:03:20;;;;;;;5.83;5.23;;;19.80;54.80;;;;;;6271850;28;20481;-67
2021/05/03 07:06:22;;;;;;;6.20;5.70;;;20.30;54.10;;;;;;6262434;28;20219;-68
2021/05/03 07:09:24;;;;;;;7.27;5.60;;;20.80;52.20;;;;;;6271639;28;20222;-68
2021/05/03 07:12:27;;;;;;;6.00;5.50;;;20.50;50.50;;;;;;6273754;28;20302;-70
2021/05/03 07:15:30;;;;;;;9.67;5.63;;;19.50;51.90;;;;;;6270696;28;20227;-70
2021/05/03 07:18:33;;;;;;;5.73;5.23;;;19.10;53.20;;;;;;6273820;28;20474;-70
2021/05/03 07:21:36;;;;;;;5.70;5.10;;;18.70;53.20;;;;;;6272156;28;20537;-69
2021/05/03 07:24:40;;;;;;;5.40;5.00;;;18.10;53.50;;;;;;6272486;28;20818;-70
2021/05/03 07:27:42;;;;;;;4.90;4.50;;;17.50;50.80;;;;;;6272996;28;20811;-70
2021/05/03 07:30:46;;;;;;;5.40;4.90;;;17.10;51.60;;;;;;6273726;28;20568;-70
2021/05/03 07:33:48;;;;;;;5.17;4.63;;;17.10;53.40;;;;;;6271085;28;20588;-70
2021/05/03 07:36:50;;;;;;;4.80;3.97;;;17.40;53.40;;;;;;6273745;28;20509;-70
2021/05/03 07:39:53;;;;;;;5.33;4.50;;;18.40;52.00;;;;;;6273320;28;20984;-70
2021/05/03 07:42:55;;;;;;;3.73;3.43;;;21.70;46.40;;;;;;6259693;28;20527;-70
2021/05/03 07:46:00;;;;;;;4.33;4.03;;;25.10;39.90;;;;;;6273556;28;20227;-68
2021/05/03 07:49:05;;;;;;;4.57;4.27;;;27.80;33.50;;;;;;6273419;28;20227;-68
2021/05/03 07:52:08;;;;;;;40.77;13.67;;;28.50;30.50;;;;;;6274236;28;20211;-66
2021/05/03 07:55:12;;;;;;;4.20;3.90;;;29.90;31.90;;;;;;6273614;28;20223;-69
2021/05/03 07:58:14;;;;;;;4.37;3.93;;;31.30;28.70;;;;;;6272968;28;20221;-69
2021/05/03 08:01:18;;;;;;;4.33;4.03;;;32.70;27.30;;;;;;6273534;28;20639;-68
2021/05/03 08:04:21;;;;;;;4.07;3.67;;;34.10;24.70;;;;;;6273907;28;20314;-69
2021/05/03 08:07:26;;;;;;;3.85;3.55;;;34.70;23.50;;;;;;6248875;28;20247;-69
2021/05/03 08:10:28;;;;;;;4.53;4.13;;;35.50;21.80;;;;;;6270248;28;20242;-67
2021/05/03 08:13:31;;;;;;;3.55;3.25;;;36.50;20.90;;;;;;6273123;28;20250;-68
2021/05/03 08:16:37;;;;;;;3.45;3.25;;;37.40;19.80;;;;;;6273781;28;20764;-68
2021/05/03 08:19:42;;;;;;;3.90;3.60;;;38.30;18.40;;;;;;6273292;28;20226;-69
2021/05/03 08:22:44;;;;;;;4.00;2.85;;;39.00;17.50;;;;;;6273720;28;20227;-65
2021/05/03 08:25:48;;;;;;;4.20;3.90;;;39.10;17.50;;;;;;6273891;28;20233;-67
2021/05/03 08:28:50;;;;;;;4.10;3.70;;;38.20;16.90;;;;;;6276447;28;20545;-68
2021/05/03 08:31:56;;;;;;;3.60;3.40;;;35.20;17.70;;;;;;6278600;28;20230;-69
2021/05/03 08:34:58;;;;;;;3.60;3.30;;;35.50;18.60;;;;;;6278379;28;20312;-69
2021/05/03 08:38:01;;;;;;;3.83;3.63;;;36.50;17.70;;;;;;6277962;28;20222;-72
2021/05/03 08:41:03;;;;;;;4.00;3.70;;;36.20;18.20;;;;;;6276630;28;20233;-70
2021/05/03 08:44:07;;;;;;;3.05;2.78;;;35.30;18.60;;;;;;6267905;28;20234;-68
2021/05/03 08:47:10;;;;;;;4.28;3.97;;;34.30;18.30;;;;;;6277132;28;20436;-70
2021/05/03 08:50:15;;;;;;;3.75;3.22;;;32.50;19.50;;;;;;6277720;28;20277;-69
2021/05/03 08:53:22;;;;;;;3.70;3.50;;;31.30;20.80;;;;;;6277495;28;20231;-72
2021/05/03 08:56:24;;;;;;;3.87;3.60;;;30.50;20.80;;;;;;6276593;28;20231;-67
2021/05/03 08:59:26;;;;;;;4.60;4.20;;;29.50;21.40;;;;;;6277063;28;20242;-65
2021/05/03 09:02:30;;;;;;;3.70;3.40;;;28.10;22.50;;;;;;6277547;28;20227;-68
2021/05/03 09:05:34;;;;;;;6.13;3.70;;;26.30;23.40;;;;;;6277074;28;20219;-67
2021/05/03 09:08:36;;;;;;;3.43;2.80;;;24.90;25.10;;;;;;6273700;28;20525;-67
2021/05/03 09:11:38;;;;;;;4.60;3.53;;;23.50;26.20;;;;;;6277136;28;20253;-67
2021/05/03 09:14:54;;;;;;;3.60;3.30;;;22.30;26.10;;;;;;6268509;28;20687;-66
2021/05/03 09:18:10;;;;;;;2.67;2.47;;;21.30;27.50;;;;;;6277074;28;20234;-66
2021/05/03 09:21:20;;;;;;;3.50;3.20;;;20.50;27.90;;;;;;6276547;28;20228;-68
2021/05/03 09:24:25;;;;;;;2.90;2.67;;;20.30;30.00;;;;;;6274578;28;20240;-68
2021/05/03 09:27:29;;;;;;;2.87;2.67;;;20.80;29.30;;;;;;6274614;28;20663;-71
2021/05/03 09:30:34;;;;;;;2.60;2.40;;;21.20;28.80;;;;;;6275037;28;20234;-69
2021/05/03 09:33:38;;;;;;;2.90;2.70;;;21.20;28.50;;;;;;6275350;28;20337;-74
2021/05/03 09:36:41;;;;;;;2.97;2.77;;;20.80;27.80;;;;;;6275503;28;20313;-67
2021/05/03 09:39:43;;;;;;;2.37;2.17;;;20.40;28.10;;;;;;6276495;28;20802;-71
2021/05/03 09:42:53;;;;;;;2.80;2.60;;;20.10;28.80;;;;;;6276499;28;20262;-69
2021/05/03 09:45:55;;;;;;;6.47;3.33;;;19.90;28.80;;;;;;6276120;28;20232;-69
2021/05/03 09:49:00;;;;;;;2.80;2.60;;;19.40;29.60;;;;;;6272826;28;20289;-67
2021/05/03 09:52:03;;;;;;;3.63;2.90;;;18.90;29.90;;;;;;6272289;28;20196;-68
2021/05/03 09:55:34;;;;;;;3.03;2.83;;;18.50;30.40;;;;;;6265612;28;20470;-68
2021/05/03 09:58:40;;;;;;;2.60;2.40;;;18.30;31.00;;;;;;6276236;28;20465;-68
2021/05/03 10:02:00;;;;;;;2.27;2.07;;;18.30;32.40;;;;;;6276625;28;20489;-69
2021/05/03 10:05:07;;;;;;;3.20;2.90;;;18.40;32.70;;;;;;6256024;28;21009;-66
2021/05/03 10:08:10;;;;;;;3.27;2.07;;;18.60;30.80;;;;;;6274053;28;20470;-70
2021/05/03 10:11:15;;;;;;;2.83;2.30;;;19.00;29.60;;;;;;6276063;28;20585;-68
2021/05/03 10:14:18;;;;;;;1.87;1.77;;;19.30;29.50;;;;;;6276083;28;20846;-68
2021/05/03 10:17:24;;;;;;;2.63;2.43;;;19.30;29.30;;;;;;6279201;28;20562;-75
2021/05/03 10:20:27;;;;;;;3.50;3.07;;;19.10;29.50;;;;;;6285525;28;20470;-74
2021/05/03 10:23:31;;;;;;;3.33;2.50;;;19.40;30.00;;;;;;6276938;28;20262;-70
2021/05/03 10:26:33;;;;;;;2.60;2.40;;;19.80;29.40;;;;;;6274028;28;20234;-75
2021/05/03 10:29:46;;;;;;;2.80;2.50;;;19.90;28.80;;;;;;6274406;28;20234;-72
2021/05/03 10:32:59;;;;;;;2.37;2.07;;;19.90;28.70;;;;;;6277575;28;20239;-74
2021/05/03 10:36:03;;;;;;;2.37;2.20;;;20.20;29.20;;;;;;6279304;28;20679;-75
2021/05/03 10:39:40;;;;;;;1.80;1.70;;;20.70;28.40;;;;;;6277527;28;20241;-75
2021/05/03 10:43:13;;;;;;;2.30;2.20;;;21.40;27.50;;;;;;6277157;28;20234;-73
2021/05/03 10:50:04;;;;;;;2.63;2.43;;;21.40;27.50;;;;;;6270247;28;20239;-69
2021/05/03 10:53:28;;;;;;;3.43;2.37;;;20.90;28.20;;;;;;6268790;28;20242;-65
2021/05/03 10:56:40;;;;;;;3.43;2.10;;;21.10;29.00;;;;;;6273552;28;20216;-67
2021/05/03 10:59:47;;;;;;;2.63;2.43;;;21.30;29.60;;;;;;6267959;28;20231;-67
2021/05/03 11:02:49;;;;;;;3.00;2.27;;;21.80;29.90;;;;;;6274271;28;20235;-69
2021/05/03 11:05:51;;;;;;;3.00;2.80;;;22.00;27.70;;;;;;6274417;28;20234;-68
2021/05/03 11:09:27;;;;;;;2.67;2.40;;;21.90;27.30;;;;;;6274143;28;20236;-69
2021/05/03 11:12:32;;;;;;;3.27;2.70;;;21.80;27.80;;;;;;6274336;28;20228;-67
2021/05/03 11:15:36;;;;;;;2.47;2.27;;;21.40;28.10;;;;;;6274181;28;20234;-68
2021/05/03 11:18:41;;;;;;;2.10;2.00;;;21.20;28.60;;;;;;6273896;28;20230;-67
2021/05/03 11:21:46;;;;;;;3.40;2.20;;;21.20;28.70;;;;;;6274000;28;20683;-66
2021/05/03 11:24:53;;;;;;;2.17;1.37;;;21.00;27.60;;;;;;6273811;28;20317;-66
2021/05/03 11:28:04;;;;;;;1.60;1.50;;;20.80;28.40;;;;;;6273802;28;20344;-67
2021/05/03 11:31:15;;;;;;;3.77;2.47;;;21.00;28.60;;;;;;6273913;28;20226;-67
2021/05/03 11:34:21;;;;;;;1.57;1.47;;;20.90;27.30;;;;;;6273735;28;21408;-67
2021/05/03 11:37:32;;;;;;;2.03;1.63;;;20.70;27.70;;;;;;6273865;28;20223;-66
2021/05/03 11:40:51;;;;;;;1.77;1.67;;;20.70;29.00;;;;;;6273723;28;20234;-67
2021/05/03 11:44:25;;;;;;;1.93;1.80;;;20.90;28.20;;;;;;6274249;28;20238;-66
2021/05/03 11:47:29;;;;;;;1.60;1.50;;;21.00;27.60;;;;;;6273602;28;20293;-67
2021/05/03 11:50:32;;;;;;;1.83;1.73;;;21.20;28.40;;;;;;6274063;28;20227;-67
2021/05/03 11:53:36;;;;;;;1.70;1.60;;;21.10;27.80;;;;;;6261062;28;20232;-68
2021/05/03 11:56:39;;;;;;;2.33;2.13;;;20.90;28.60;;;;;;6270616;28;20543;-66
2021/05/03 11:59:43;;;;;;;2.57;2.37;;;20.70;27.60;;;;;;6270846;28;20667;-67
2021/05/03 12:02:46;;;;;;;2.13;2.03;;;20.40;28.30;;;;;;6276860;28;20233;-70
2021/05/03 12:05:49;;;;;;;2.60;1.70;;;19.80;28.60;;;;;;6276235;28;20230;-69
2021/05/03 12:08:58;;;;;;;3.10;2.50;;;19.70;29.60;;;;;;6278166;28;20215;-69
2021/05/03 12:12:01;;;;;;;2.17;1.97;;;19.70;29.20;;;;;;6278503;28;20270;-67
2021/05/03 12:15:06;;;;;;;1.80;1.60;;;19.80;29.30;;;;;;6278451;28;20228;-67
2021/05/03 12:18:08;;;;;;;3.20;2.90;;;19.90;29.40;;;;;;6278444;28;20314;-69
2021/05/03 12:21:14;;;;;;;3.20;3.00;;;20.30;31.10;;;;;;6278404;28;20288;-69
2021/05/03 12:24:18;;;;;;;2.67;2.47;;;20.60;31.50;;;;;;6278033;28;20231;-69
2021/05/03 12:27:20;;;;;;;3.03;2.73;;;21.10;31.50;;;;;;6277375;28;20227;-68
2021/05/03 12:30:25;;;;;;;2.90;2.70;;;21.00;31.60;;;;;;6278360;28;20227;-69
2021/05/03 12:33:28;;;;;;;4.80;2.87;;;20.90;31.30;;;;;;6277800;28;20231;-67
2021/05/03 12:36:31;;;;;;;2.70;2.50;;;20.90;31.10;;;;;;6278368;28;20626;-68
2021/05/03 12:39:34;;;;;;;2.47;2.37;;;21.00;30.60;;;;;;6277873;28;20243;-67
2021/05/03 12:42:47;;;;;;;2.70;2.50;;;20.80;30.30;;;;;;6277871;28;20242;-66
2021/05/03 12:45:57;;;;;;;2.73;2.47;;;20.80;30.20;;;;;;6277537;28;20239;-69
2021/05/03 12:49:03;;;;;;;3.00;2.70;;;20.80;30.00;;;;;;6278015;28;20294;-68
2021/05/03 12:52:09;;;;;;;2.40;2.20;;;20.60;30.00;;;;;;6277683;28;20249;-68
2021/05/03 12:55:31;;;;;;;2.70;2.50;;;20.80;29.40;;;;;;6272902;28;20219;-68
2021/05/03 12:58:39;;;;;;;3.60;3.30;;;21.10;30.40;;;;;;6277471;28;20219;-68
2021/05/03 13:01:47;;;;;;;2.97;2.77;;;20.60;32.20;;;;;;6277835;28;20224;-68
2021/05/03 13:04:52;;;;;;;2.70;2.40;;;19.90;32.20;;;;;;6277338;28;20241;-67
2021/05/03 13:08:04;;;;;;;4.07;3.00;;;19.30;32.80;;;;;;6277630;28;20246;-65
2021/05/03 13:25:36;;;;;;;3.20;3.00;;;19.50;33.00;;;;;;6276634;28;20238;-67
2021/05/03 13:29:07;;;;;;;2.50;2.30;;;19.50;34.80;;;;;;6276777;28;20579;-64
2021/05/03 13:32:13;;;;;;;2.53;2.23;;;19.20;34.00;;;;;;6274290;28;20238;-70
2021/05/03 13:35:17;;;;;;;2.90;2.37;;;18.90;34.90;;;;;;6277105;28;20931;-70
2021/05/03 13:38:19;;;;;;;1.97;1.80;;;19.00;33.50;;;;;;6277406;28;20680;-72
2021/05/03 13:41:22;;;;;;;2.60;2.40;;;19.10;32.20;;;;;;6277061;28;20231;-73
2021/05/03 13:44:24;;;;;;;2.60;2.40;;;19.00;32.50;;;;;;6276706;28;20485;-69
2021/05/03 13:47:26;;;;;;;2.73;2.13;;;18.80;32.80;;;;;;6276148;28;20966;-70
2021/05/03 13:50:30;;;;;;;2.47;2.37;;;18.80;34.10;;;;;;6276524;28;20586;-66
2021/05/03 13:53:32;;;;;;;2.63;1.90;;;18.80;34.90;;;;;;6272874;28;20489;-68
2021/05/03 13:56:35;;;;;;;3.00;2.80;;;18.90;34.90;;;;;;6276206;28;20235;-69
2021/05/03 13:59:37;;;;;;;3.40;3.10;;;18.30;35.50;;;;;;6276029;28;20474;-69
2021/05/03 14:02:39;;;;;;;2.63;2.40;;;18.20;35.60;;;;;;6267052;28;21237;-65
2021/05/03 14:05:43;;;;;;;3.13;2.93;;;18.20;36.10;;;;;;6276262;28;20560;-70
2021/05/03 14:08:45;;;;;;;2.27;2.07;;;18.20;34.40;;;;;;6276138;28;20489;-65
2021/05/03 14:11:48;;;;;;;3.30;3.00;;;17.90;36.30;;;;;;6275737;28;20480;-71
2021/05/03 14:14:50;;;;;;;2.63;2.40;;;17.60;36.90;;;;;;6275776;28;20477;-71
2021/05/03 14:17:52;;;;;;;2.70;2.50;;;17.50;37.60;;;;;;6275432;28;20474;-68
2021/05/03 14:20:55;;;;;;;2.00;1.90;;;17.50;38.30;;;;;;6275486;28;20474;-67
2021/05/03 14:23:58;;;;;;;3.33;3.13;;;17.60;38.10;;;;;;6275070;28;20489;-65
2021/05/03 14:27:01;;;;;;;2.63;2.40;;;17.60;38.10;;;;;;6273902;28;20458;-66
2021/05/03 14:30:10;;;;;;;2.70;2.50;;;17.30;38.30;;;;;;6275247;28;20473;-66
2021/05/03 14:33:15;;;;;;;2.90;2.60;;;17.20;39.00;;;;;;6275258;28;20478;-69
2021/05/03 14:36:20;;;;;;;2.60;2.40;;;17.20;40.10;;;;;;6275326;28;20553;-67
2021/05/03 14:39:22;;;;;;;2.90;2.70;;;17.20;39.70;;;;;;6275112;28;20473;-72
2021/05/03 14:42:24;;;;;;;2.87;2.67;;;17.10;41.50;;;;;;6275365;28;20470;-70
2021/05/03 14:45:30;;;;;;;2.30;2.10;;;16.80;41.70;;;;;;6274352;28;20486;-70
2021/05/03 14:48:34;;;;;;;3.17;2.87;;;16.80;41.90;;;;;;6274224;28;20508;-71
2021/05/03 14:51:49;;;;;;;3.47;2.67;;;16.90;41.50;;;;;;6274577;28;20474;-66
2021/05/03 14:54:54;;;;;;;3.13;2.40;;;17.00;40.70;;;;;;6274869;28;20569;-66
2021/05/03 14:57:56;;;;;;;3.23;3.03;;;16.80;42.00;;;;;;6274656;28;20494;-66
2021/05/03 15:00:58;;;;;;;2.90;2.70;;;17.10;42.30;;;;;;6273250;28;20517;-65
2021/05/03 15:04:03;;;;;;;2.83;2.63;;;17.00;42.00;;;;;;6263279;28;20957;-66
2021/05/03 15:07:08;;;;;;;2.60;2.40;;;17.00;41.50;;;;;;6272889;28;20777;-66
2021/05/03 15:10:15;;;;;;;2.60;2.40;;;17.10;41.00;;;;;;6272626;28;20569;-66
2021/05/03 15:13:18;;;;;;;3.13;2.80;;;17.30;40.70;;;;;;6273460;28;20559;-67
2021/05/03 15:16:32;;;;;;;2.90;2.70;;;17.40;40.90;;;;;;6273973;28;20500;-68
2021/05/03 15:19:38;;;;;;;2.53;2.30;;;17.30;41.50;;;;;;6269571;28;20482;-68
2021/05/03 15:22:41;;;;;;;2.63;2.43;;;17.20;41.10;;;;;;6258204;28;20477;-67
2021/05/03 15:25:48;;;;;;;2.70;2.50;;;17.20;40.80;;;;;;6275081;28;20469;-67
2021/05/03 15:28:58;;;;;;;2.80;2.60;;;17.20;41.10;;;;;;6250676;28;20564;-70
2021/05/03 15:35:22;;;;;;;2.60;2.40;;;17.30;40.90;;;;;;6257041;28;20569;-69
2021/05/03 15:38:25;;;;;;;4.23;2.87;;;17.10;41.00;;;;;;6274716;28;20481;-66
2021/05/03 15:41:27;;;;;;;2.37;2.23;;;16.90;40.90;;;;;;6274894;28;20482;-70
2021/05/03 15:44:29;;;;;;;2.50;2.30;;;16.90;41.70;;;;;;6273894;28;20621;-64
2021/05/03 15:47:35;;;;;;;2.70;2.50;;;16.60;41.50;;;;;;6274106;28;20483;-68
2021/05/03 15:50:38;;;;;;;2.87;2.40;;;16.50;42.00;;;;;;6273785;28;20477;-69
2021/05/03 15:53:42;;;;;;;2.30;2.10;;;16.60;42.20;;;;;;6273094;28;20498;-68
2021/05/03 15:56:45;;;;;;;2.90;2.30;;;16.40;42.10;;;;;;6273745;28;20817;-69
2021/05/03 15:59:47;;;;;;;2.43;2.20;;;16.50;41.50;;;;;;6273588;28;20496;-65
2021/05/03 16:02:49;;;;;;;2.03;1.93;;;16.50;42.00;;;;;;6273720;28;20481;-66
2021/05/03 16:05:51;;;;;;;1.80;1.70;;;16.50;42.10;;;;;;6273583;28;20965;-66
2021/05/03 16:08:55;;;;;;;2.17;2.07;;;16.50;42.20;;;;;;6264594;28;20484;-66
2021/05/03 16:11:57;;;;;;;2.97;2.77;;;16.60;42.10;;;;;;6273756;28;20485;-65
2021/05/03 16:15:00;;;;;;;2.20;2.00;;;16.70;42.20;;;;;;6273426;28;20473;-67
2021/05/03 16:18:03;;;;;;;2.17;2.07;;;16.70;42.20;;;;;;6273279;28;20481;-66
2021/05/03 16:21:05;;;;;;;2.47;2.27;;;16.70;41.60;;;;;;6273179;28;20474;-67
2021/05/03 16:24:08;;;;;;;2.10;2.00;;;16.70;41.60;;;;;;6273296;28;20966;-67
2021/05/03 16:27:11;;;;;;;2.50;2.30;;;16.60;42.20;;;;;;6260713;28;20482;-67
2021/05/03 16:30:16;;;;;;;3.50;2.43;;;16.40;42.90;;;;;;6248433;28;20486;-66